Time;durP1;ratioP1;P1;durP2;ratioP2;P2;SDS_P1;SDS_P2;PMS_P1;PMS_P2;Temp;Humidity;BMP_temperature;BMP_pressure;BME280_temperature;BME280_humidity;BME280_pressure;Samples;Min_cycle;Max_cycle;Signal;HPM_P1;HPM_P2
2023/01/14 00:00:18;;;;;;;2.90;0.88;;;;;;;-140.72;100.00;53127.50;5109562;28;20026;-68
2023/01/14 00:02:44;;;;;;;10.63;2.03;;;;;;;-140.72;100.00;53159.97;5106557;28;20031;-67
2023/01/14 00:05:09;;;;;;;3.15;1.27;;;;;;;-140.72;100.00;53214.78;5109797;28;20445;-69
2023/01/14 00:07:35;;;;;;;9.23;1.58;;;;;;;-140.72;100.00;53107.19;5108701;28;20071;-68
2023/01/14 00:10:00;;;;;;;5.60;1.20;;;;;;;-140.72;100.00;53149.81;5108962;28;20076;-67
2023/01/14 00:12:25;;;;;;;12.38;2.03;;;;;;;-140.72;100.00;53170.13;5108610;28;20106;-68
2023/01/14 00:14:51;;;;;;;8.77;1.23;;;;;;;-140.72;100.00;53162.00;5108846;28;20029;-69
2023/01/14 00:17:17;;;;;;;2.58;0.52;;;;;;;-140.72;100.00;53143.72;5107417;28;20020;-68
2023/01/14 00:19:42;;;;;;;5.40;1.30;;;;;;;-140.72;100.00;53186.34;5109851;28;20023;-68
2023/01/14 00:22:08;;;;;;;3.33;1.25;;;;;;;-140.72;100.00;53145.75;5107785;28;20031;-68
2023/01/14 00:24:33;;;;;;;3.70;1.20;;;;;;;-140.72;100.00;53139.69;5110002;27;20032;-68
2023/01/14 00:26:58;;;;;;;4.00;0.77;;;;;;;-140.72;100.00;53159.97;5108825;28;20020;-68
2023/01/14 00:29:30;;;;;;;4.47;1.23;;;;;;;-140.72;100.00;53141.69;5107276;28;20023;-68
2023/01/14 00:32:00;;;;;;;4.50;0.85;;;;;;;-140.72;100.00;53149.81;5106321;28;20065;-68
2023/01/14 00:34:27;;;;;;;5.18;1.38;;;;;;;-140.72;100.00;53162.00;5108582;28;20024;-68
2023/01/14 00:36:53;;;;;;;9.07;2.25;;;;;;;-140.72;100.00;53170.13;5108257;28;20019;-68
2023/01/14 00:39:19;;;;;;;11.30;1.70;;;;;;;-140.72;100.00;53149.81;5106991;28;20023;-68
2023/01/14 00:41:45;;;;;;;5.78;1.08;;;;;;;-140.72;100.00;53166.06;5109638;28;20438;-69
2023/01/14 00:44:10;;;;;;;12.43;2.00;;;;;;;-140.72;100.00;53145.75;5108556;28;20114;-68
2023/01/14 00:46:37;;;;;;;4.55;1.30;;;;;;;-140.72;100.00;53141.69;5107995;28;20370;-68
2023/01/14 00:49:07;;;;;;;8.52;1.45;;;;;;;-140.72;100.00;53202.59;5109103;28;20359;-68
2023/01/14 00:51:34;;;;;;;5.43;1.40;;;;;;;-140.72;100.00;53162.00;5108020;28;20080;-68
2023/01/14 00:54:01;;;;;;;7.88;2.33;;;;;;;-140.72;100.00;53153.88;5107622;28;20038;-68
2023/01/14 00:56:26;;;;;;;13.85;1.30;;;;;;;-140.72;100.00;53145.75;5109056;28;20027;-67
2023/01/14 00:58:52;;;;;;;8.88;1.60;;;;;;;-140.72;100.00;53153.88;5108143;28;20050;-69
2023/01/14 01:01:18;;;;;;;7.57;1.30;;;;;;;-140.72;100.00;53190.41;5107341;28;20023;-69
2023/01/14 01:03:49;;;;;;;6.53;1.30;;;;;;;-140.72;100.00;53170.13;5104218;28;20032;-69
2023/01/14 01:06:17;;;;;;;10.65;2.10;;;;;;;-140.72;100.00;53168.09;5108865;28;20053;-69
2023/01/14 01:08:42;;;;;;;9.43;1.52;;;;;;;-140.72;100.00;53149.81;5108477;28;20030;-69
2023/01/14 01:11:09;;;;;;;7.45;1.48;;;;;;;-140.72;100.00;53145.75;5106640;28;20449;-69
2023/01/14 01:13:36;;;;;;;8.07;1.67;;;;;;;-140.72;100.00;53166.06;5111990;28;20042;-69
2023/01/14 01:16:06;;;;;;;4.25;1.17;;;;;;;-140.72;100.00;53168.09;5112594;28;20070;-69
2023/01/14 01:18:34;;;;;;;8.23;1.92;;;;;;;-140.72;100.00;53149.81;5111295;28;20031;-70
2023/01/14 01:21:11;;;;;;;2.80;1.48;;;;;;;-140.72;100.00;53172.16;5112300;28;20026;-69
2023/01/14 01:23:40;;;;;;;6.53;1.95;;;;;;;-140.72;100.00;53178.22;5111024;28;20020;-69
2023/01/14 01:26:07;;;;;;;4.20;1.20;;;;;;;-140.72;100.00;53166.06;5110506;28;20028;-69
2023/01/14 01:28:33;;;;;;;3.67;1.17;;;;;;;-140.72;100.00;53153.88;5111472;28;20036;-70
2023/01/14 01:31:07;;;;;;;11.32;1.42;;;;;;;-140.72;100.00;53153.88;5111220;28;20015;-69
2023/01/14 01:33:33;;;;;;;8.77;1.60;;;;;;;-140.72;100.00;53166.06;5110886;28;20034;-69
2023/01/14 01:36:06;;;;;;;5.75;1.15;;;;;;;-140.72;100.00;53184.31;5112369;28;20026;-69
2023/01/14 01:38:32;;;;;;;6.10;1.73;;;;;;;-140.72;100.00;53174.19;5110733;28;20023;-69
2023/01/14 01:40:59;;;;;;;4.78;1.60;;;;;;;-140.72;100.00;53182.28;5111313;28;20028;-68
2023/01/14 01:43:28;;;;;;;8.02;1.50;;;;;;;-140.72;100.00;53172.16;5112562;27;20027;-69
2023/01/14 01:45:56;;;;;;;4.97;1.50;;;;;;;-140.72;100.00;53186.34;5105462;27;21086;-69
2023/01/14 01:48:37;;;;;;;5.80;1.15;;;;;;;-140.72;100.00;53153.88;5109883;27;20358;-69
2023/01/14 01:51:18;;;;;;;9.10;1.27;;;;;;;-140.72;100.00;53162.00;5108193;28;20008;-70
2023/01/14 01:53:54;;;;;;;3.65;1.30;;;;;;;-140.72;100.00;53166.06;5108574;28;20441;-66
2023/01/14 01:56:24;;;;;;;13.23;1.63;;;;;;;-140.72;100.00;53168.09;5110582;28;20034;-67
2023/01/14 01:58:51;;;;;;;4.63;1.20;;;;;;;-140.72;100.00;53198.53;5108842;28;20023;-68
2023/01/14 02:01:17;;;;;;;6.63;1.27;;;;;;;-140.72;100.00;53245.22;5111884;28;20097;-67
2023/01/14 02:03:46;;;;;;;5.03;1.55;;;;;;;-140.72;100.00;53147.78;5109005;28;20403;-68
2023/01/14 02:06:12;;;;;;;11.57;1.85;;;;;;;-140.72;100.00;53182.28;5112267;28;20115;-68
2023/01/14 02:08:40;;;;;;;7.45;1.48;;;;;;;-140.72;100.00;53210.72;5110101;28;20034;-68
2023/01/14 02:11:28;;;;;;;3.88;1.27;;;;;;;-140.72;100.00;53186.34;5112281;28;20461;-68
2023/01/14 02:14:02;;;;;;;9.30;1.80;;;;;;;-140.72;100.00;53210.72;5109389;28;20500;-68
2023/01/14 02:16:27;;;;;;;5.82;1.45;;;;;;;-140.72;100.00;53149.81;5107555;28;20032;-68
2023/01/14 02:19:13;;;;;;;5.97;1.40;;;;;;;-140.72;100.00;53210.72;5109322;28;20035;-68
2023/01/14 02:22:01;;;;;;;8.70;1.35;;;;;;;-140.72;100.00;53184.31;5108381;28;20042;-68
2023/01/14 02:24:48;;;;;;;7.65;1.80;;;;;;;-140.72;100.00;53198.53;5110583;28;20224;-68
2023/01/14 02:27:30;;;;;;;7.22;1.35;;;;;;;-140.72;100.00;53186.34;5111622;28;20151;-68
2023/01/14 02:30:01;;;;;;;4.78;1.95;;;;;;;-140.72;100.00;53198.53;5110037;27;20023;-68
2023/01/14 02:32:26;;;;;;;9.65;1.55;;;;;;;-140.72;100.00;53198.53;5111591;28;20023;-67
2023/01/14 02:35:06;;;;;;;1.98;1.00;;;;;;;-140.72;100.00;53178.22;5111062;28;20472;-67
2023/01/14 02:37:51;;;;;;;9.00;1.75;;;;;;;-140.72;100.00;53192.44;5108848;27;20031;-69
2023/01/14 02:40:39;;;;;;;8.52;1.73;;;;;;;-140.72;100.00;53168.09;5099522;28;20030;-68
2023/01/14 02:46:30;;;;;;;9.55;1.88;;;;;;;-140.72;100.00;53192.44;5111200;28;20093;-67
2023/01/14 02:48:56;;;;;;;4.78;1.02;;;;;;;-140.72;100.00;53206.66;5047934;28;20067;-67
2023/01/14 02:51:23;;;;;;;10.98;1.63;;;;;;;-140.72;100.00;53174.19;5110347;28;20043;-68
2023/01/14 02:53:48;;;;;;;4.28;1.45;;;;;;;-140.72;100.00;53206.66;5110779;28;20503;-68
2023/01/14 02:56:14;;;;;;;6.20;1.40;;;;;;;-140.72;100.00;53162.00;5109734;28;20028;-68
2023/01/14 02:59:04;;;;;;;8.70;1.55;;;;;;;-140.72;100.00;53226.94;5111367;28;20118;-68
2023/01/14 03:01:29;;;;;;;13.27;2.00;;;;;;;-140.72;100.00;53198.53;5109836;28;20032;-69
2023/01/14 03:04:30;;;;;;;5.10;2.13;;;;;;;-140.72;100.00;53182.28;5110051;28;20032;-70
2023/01/14 03:07:16;;;;;;;5.38;1.85;;;;;;;-140.72;100.00;53145.75;5080247;28;20063;-68
2023/01/14 03:09:54;;;;;;;10.93;1.98;;;;;;;-140.72;100.00;53247.25;5111146;28;20028;-68
2023/01/14 03:12:33;;;;;;;7.65;2.00;;;;;;;-140.72;100.00;53214.78;5109765;28;20098;-68
2023/01/14 03:15:12;;;;;;;8.13;1.73;;;;;;;-140.72;100.00;53166.06;5109540;28;20020;-68
2023/01/14 03:17:53;;;;;;;15.10;2.40;;;;;;;-140.72;100.00;53198.53;5109233;28;20027;-68
2023/01/14 03:33:17;;;;;;;11.05;2.45;;;;;;;-140.72;100.00;53166.06;6245541;22;1285148;-69
2023/01/14 03:35:47;;;;;;;10.73;2.45;;;;;;;-140.72;100.00;53228.97;6281578;22;20004;-68
2023/01/14 03:38:18;;;;;;;;;;;;;;;-140.72;100.00;53198.53;6282360;22;19999;-69
2023/01/14 03:40:46;;;;;;;11.23;2.05;;;;;;;-140.72;100.00;53190.41;6280817;22;19965;-68
2023/01/14 03:43:29;;;;;;;6.53;1.98;;;;;;;-140.72;100.00;53204.63;6281523;22;19995;-69
2023/01/14 03:45:55;;;;;;;14.68;3.15;;;;;;;-140.72;100.00;53222.88;6280911;22;20003;-68
2023/01/14 03:48:21;;;;;;;5.30;1.77;;;;;;;-140.72;100.00;53164.03;6281799;22;19999;-68
2023/01/14 03:51:05;;;;;;;9.85;1.88;;;;;;;-140.72;100.00;53149.81;6281372;22;20078;-69
2023/01/14 03:53:35;;;;;;;7.05;1.83;;;;;;;-140.72;100.00;53202.59;6280391;22;20074;-68
2023/01/14 03:56:01;;;;;;;14.38;2.03;;;;;;;-140.72;100.00;53204.63;6281905;22;20421;-68
2023/01/14 03:58:51;;;;;;;10.10;2.42;;;;;;;-140.72;100.00;53170.13;6280941;22;19999;-68
2023/01/14 04:01:22;;;;;;;9.68;2.97;;;;;;;-140.72;100.00;53194.47;6279537;22;20356;-68
2023/01/14 04:03:48;;;;;;;7.80;2.05;;;;;;;-140.72;100.00;53184.31;6281394;22;20027;-68
2023/01/14 04:06:14;;;;;;;10.73;2.90;;;;;;;-140.72;100.00;53202.59;6282475;22;20398;-68
2023/01/14 04:08:40;;;;;;;11.85;2.15;;;;;;;-140.72;100.00;53214.78;6279706;22;20082;-68
2023/01/14 04:11:05;;;;;;;16.60;2.92;;;;;;;-140.72;100.00;53210.72;6281490;22;20031;-68
2023/01/14 04:16:18;;;;;;;7.82;2.13;;;;;;;-140.72;100.00;53194.47;6281627;22;20057;-68
2023/01/14 04:18:46;;;;;;;7.10;2.35;;;;;;;-140.72;100.00;53180.25;6281306;22;20053;-68
2023/01/14 04:21:12;;;;;;;9.48;2.92;;;;;;;-140.72;100.00;53190.41;6281275;22;19995;-68
2023/01/14 04:23:37;;;;;;;8.90;2.35;;;;;;;-140.72;100.00;53184.31;6281123;22;20007;-68
2023/01/14 04:26:03;;;;;;;11.52;2.80;;;;;;;-140.72;100.00;53243.19;6282027;22;20048;-68
2023/01/14 04:28:28;;;;;;;8.52;1.75;;;;;;;-140.72;100.00;53182.28;6280546;22;20004;-69
2023/01/14 04:30:54;;;;;;;8.60;2.42;;;;;;;-140.72;100.00;53226.94;6280568;22;20000;-68
2023/01/14 04:33:20;;;;;;;6.80;2.03;;;;;;;-140.72;100.00;53216.78;6276617;22;20020;-68
2023/01/14 04:35:48;;;;;;;3.53;2.05;;;;;;;-140.72;100.00;53204.63;6273020;22;20433;-69
2023/01/14 04:38:18;;;;;;;9.75;1.83;;;;;;;-140.72;100.00;53218.81;6274585;22;20030;-68
2023/01/14 04:40:43;;;;;;;6.93;2.20;;;;;;;-140.72;100.00;53176.22;6274685;22;20306;-69
2023/01/14 04:43:09;;;;;;;7.85;2.45;;;;;;;-140.72;100.00;53206.66;6273716;22;20007;-69
2023/01/14 04:45:40;;;;;;;6.70;2.10;;;;;;;-140.72;100.00;53180.25;6272037;22;20271;-68
2023/01/14 04:48:05;;;;;;;4.20;1.17;;;;;;;-140.72;100.00;53176.22;6272570;22;20014;-68
2023/01/14 04:50:31;;;;;;;4.65;1.55;;;;;;;-140.72;100.00;53202.59;6272664;22;20433;-68
2023/01/14 04:53:07;;;;;;;9.52;2.25;;;;;;;-140.72;100.00;53228.97;6273955;22;20027;-68
2023/01/14 04:55:37;;;;;;;10.75;2.17;;;;;;;-140.72;100.00;53172.16;6273893;22;20091;-67
2023/01/14 04:58:03;;;;;;;16.23;2.95;;;;;;;-140.72;100.00;53188.38;6273346;22;20414;-68
2023/01/14 05:00:29;;;;;;;13.95;2.38;;;;;;;-140.72;100.00;53174.19;6272639;22;20003;-68
2023/01/14 05:02:57;;;;;;;9.48;2.45;;;;;;;-140.72;100.00;53159.97;6273515;22;20067;-68
2023/01/14 05:05:22;;;;;;;9.63;2.95;;;;;;;-140.72;100.00;53190.41;6273912;22;20004;-68
2023/01/14 05:07:47;;;;;;;10.45;2.10;;;;;;;-140.72;100.00;53196.50;6273600;22;20011;-68
2023/01/14 05:10:14;;;;;;;7.97;3.03;;;;;;;-140.72;100.00;53196.50;6273101;22;20402;-68
2023/01/14 05:12:55;;;;;;;12.85;2.72;;;;;;;-140.72;100.00;53174.19;6273377;22;20011;-69
2023/01/14 05:15:28;;;;;;;10.73;2.40;;;;;;;-140.72;100.00;53182.28;6273740;22;20045;-69
2023/01/14 05:17:54;;;;;;;10.35;2.67;;;;;;;-140.72;100.00;53194.47;6273199;22;20003;-68
2023/01/14 05:20:20;;;;;;;7.13;1.52;;;;;;;-140.72;100.00;53188.38;6273068;22;20011;-68
2023/01/14 05:22:46;;;;;;;8.23;1.52;;;;;;;-140.72;100.00;53192.44;6272374;22;20011;-68
2023/01/14 05:25:11;;;;;;;14.65;2.38;;;;;;;-140.72;100.00;53184.31;6272370;22;19996;-69
2023/01/14 05:27:37;;;;;;;8.30;1.85;;;;;;;-140.72;100.00;53170.13;6273559;22;20010;-69
2023/01/14 05:30:03;;;;;;;7.25;2.33;;;;;;;-140.72;100.00;53198.53;6272916;22;19996;-69
2023/01/14 05:32:29;;;;;;;7.30;1.20;;;;;;;-140.72;100.00;53166.06;6272433;22;20031;-68
2023/01/14 05:34:54;;;;;;;9.35;2.67;;;;;;;-140.72;100.00;53174.19;6272937;22;20006;-69
2023/01/14 05:37:19;;;;;;;5.35;2.25;;;;;;;-140.72;100.00;53176.22;6274009;22;19999;-68
2023/01/14 05:39:45;;;;;;;10.55;1.73;;;;;;;-140.72;100.00;53198.53;6272187;22;19996;-68
2023/01/14 05:47:39;;;;;;;8.00;1.98;;;;;;;-140.72;100.00;53198.53;6273327;22;20035;-68
2023/01/14 05:50:05;;;;;;;7.25;1.80;;;;;;;-140.72;100.00;53188.38;6273941;22;20003;-68
2023/01/14 05:52:30;;;;;;;8.68;1.80;;;;;;;-140.72;100.00;53190.41;6271716;22;20102;-68
2023/01/14 05:54:55;;;;;;;3.33;1.10;;;;;;;-140.72;100.00;53157.94;6274022;22;20007;-67
2023/01/14 05:57:21;;;;;;;10.98;1.67;;;;;;;-140.72;100.00;53222.88;6272931;22;20096;-67
2023/01/14 05:59:46;;;;;;;7.72;2.78;;;;;;;-140.72;100.00;53218.81;6272259;22;20025;-68
2023/01/14 06:07:42;;;;;;;3.28;1.63;;;;;;;-140.72;100.00;53212.75;6272530;22;20421;-68
2023/01/14 06:10:08;;;;;;;5.30;1.55;;;;;;;-140.72;100.00;53204.63;6272622;22;20024;-68
2023/01/14 06:12:57;;;;;;;3.35;1.65;;;;;;;-140.72;100.00;53206.66;6270479;22;20004;-68
2023/01/14 06:15:21;;;;;;;9.85;1.50;;;;;;;-140.72;100.00;53251.31;6271691;22;20015;-68
2023/01/14 06:17:56;;;;;;;7.72;2.20;;;;;;;-140.72;100.00;53202.59;6273028;22;20061;-68
2023/01/14 06:20:22;;;;;;;6.55;1.70;;;;;;;-140.72;100.00;53202.59;6272022;22;20027;-68
2023/01/14 06:22:47;;;;;;;8.88;1.80;;;;;;;-140.72;100.00;53157.94;6272462;22;20004;-68
2023/01/14 06:25:12;;;;;;;3.70;0.98;;;;;;;-140.72;100.00;53226.94;6272787;22;20406;-68
2023/01/14 06:27:38;;;;;;;5.20;1.15;;;;;;;-140.72;100.00;53198.53;6272085;22;20398;-68
2023/01/14 06:30:04;;;;;;;12.43;1.95;;;;;;;-140.72;100.00;53182.28;6269595;22;20011;-67
2023/01/14 06:32:29;;;;;;;10.27;1.77;;;;;;;-140.72;100.00;53188.38;6271640;22;20069;-68
2023/01/14 06:34:54;;;;;;;6.05;2.35;;;;;;;-140.72;100.00;53194.47;6269595;22;19995;-66
2023/01/14 06:37:20;;;;;;;6.68;1.35;;;;;;;-140.72;100.00;53206.66;6271430;22;20020;-66
2023/01/14 06:39:45;;;;;;;12.27;2.70;;;;;;;-140.72;100.00;53218.81;6272304;22;20008;-67
2023/01/14 06:42:11;;;;;;;2.03;1.42;;;;;;;-140.72;100.00;53206.66;6271387;22;20004;-67
2023/01/14 06:44:36;;;;;;;7.18;1.60;;;;;;;-140.72;100.00;53208.69;6272847;22;20410;-66
2023/01/14 06:47:01;;;;;;;10.27;1.63;;;;;;;-140.72;100.00;53243.19;6272634;22;20010;-66
2023/01/14 06:49:27;;;;;;;9.73;2.72;;;;;;;-140.72;100.00;53210.72;6271889;22;20406;-67
2023/01/14 06:51:52;;;;;;;4.05;1.65;;;;;;;-140.72;100.00;53198.53;6272516;22;20006;-67
2023/01/14 06:54:17;;;;;;;8.55;1.65;;;;;;;-140.72;100.00;53214.78;6272190;22;20402;-67
2023/01/14 06:56:43;;;;;;;8.55;2.40;;;;;;;-140.72;100.00;53212.75;6271435;22;20061;-67
2023/01/14 06:59:08;;;;;;;11.18;1.88;;;;;;;-140.72;100.00;53226.94;6272639;22;20000;-66
2023/01/14 07:01:39;;;;;;;10.80;1.83;;;;;;;-140.72;100.00;53204.63;6272212;22;20074;-66
2023/01/14 07:04:04;;;;;;;12.45;3.30;;;;;;;-140.72;100.00;53218.81;6271862;22;20303;-66
2023/01/14 07:06:30;;;;;;;8.32;2.33;;;;;;;-140.72;100.00;53210.72;6272527;22;20014;-66
2023/01/14 07:08:55;;;;;;;6.63;2.28;;;;;;;-140.72;100.00;53182.28;6272787;22;20019;-66
2023/01/14 07:11:20;;;;;;;7.78;1.40;;;;;;;-140.72;100.00;53255.34;6271708;22;20007;-66
2023/01/14 07:13:46;;;;;;;3.33;1.65;;;;;;;-140.72;100.00;53239.13;6272306;22;20088;-66
2023/01/14 07:16:11;;;;;;;12.75;2.20;;;;;;;-140.72;100.00;53170.13;6272360;22;20006;-66
2023/01/14 07:18:36;;;;;;;4.40;1.70;;;;;;;-140.72;100.00;53204.63;6270840;22;20000;-66
2023/01/14 07:21:02;;;;;;;5.15;1.45;;;;;;;-140.72;100.00;53194.47;6271929;22;20035;-67
2023/01/14 07:23:27;;;;;;;4.25;2.45;;;;;;;-140.72;100.00;53222.88;6272168;22;20293;-65
2023/01/14 07:25:55;;;;;;;10.32;2.35;;;;;;;-140.72;100.00;53210.72;6271664;22;19996;-67
2023/01/14 07:28:22;;;;;;;9.50;2.40;;;;;;;-140.72;100.00;53208.69;6272565;22;20023;-65
2023/01/14 07:30:48;;;;;;;8.48;2.50;;;;;;;-140.72;100.00;53210.72;6271741;22;20004;-66
2023/01/14 07:33:13;;;;;;;5.05;1.90;;;;;;;-140.72;100.00;53192.44;6272598;22;20008;-65
2023/01/14 07:35:39;;;;;;;8.13;2.15;;;;;;;-140.72;100.00;53188.38;6272672;22;20414;-65
2023/01/14 07:38:04;;;;;;;3.17;1.45;;;;;;;-140.72;100.00;53218.81;6271600;22;20284;-65
2023/01/14 07:40:33;;;;;;;5.82;1.55;;;;;;;-140.72;100.00;53210.72;6272498;22;20113;-66
2023/01/14 07:42:59;;;;;;;7.20;1.88;;;;;;;-140.72;100.00;53182.28;6272617;22;20042;-65
2023/01/14 07:45:27;;;;;;;7.20;1.33;;;;;;;-140.72;100.00;53184.31;6271441;22;20027;-66
2023/01/14 07:47:52;;;;;;;3.53;1.90;;;;;;;-140.72;100.00;53182.28;6272627;22;20080;-64
2023/01/14 07:50:18;;;;;;;8.00;1.38;;;;;;;-140.72;100.00;53172.16;6272273;22;20024;-65
2023/01/14 07:52:51;;;;;;;6.18;2.05;;;;;;;-140.72;100.00;53222.88;6271820;22;20315;-66
2023/01/14 07:55:20;;;;;;;9.07;2.80;;;;;;;-140.72;100.00;53210.72;6272506;22;20047;-65
2023/01/14 07:57:48;;;;;;;6.03;2.40;;;;;;;-140.72;100.00;53210.72;6272534;22;20071;-67
2023/01/14 08:00:14;;;;;;;3.83;2.10;;;;;;;-140.72;100.00;53212.75;6272026;22;19996;-66
2023/01/14 08:02:40;;;;;;;6.07;2.72;;;;;;;-140.72;100.00;53235.06;6271913;22;20011;-65
2023/01/14 08:05:06;;;;;;;4.72;2.03;;;;;;;-140.72;100.00;53194.47;6272533;22;20310;-65
2023/01/14 08:07:31;;;;;;;4.22;1.80;;;;;;;-140.72;100.00;53180.25;6272063;22;20027;-65
2023/01/14 08:09:57;;;;;;;8.30;2.50;;;;;;;-140.72;100.00;53218.81;6274474;22;20010;-66
2023/01/14 08:12:22;;;;;;;6.07;2.50;;;;;;;-140.72;100.00;53214.78;6274128;22;20008;-64
2023/01/14 08:14:47;;;;;;;5.40;2.70;;;;;;;-140.72;100.00;53159.97;6273236;22;20123;-65
2023/01/14 08:17:13;;;;;;;4.32;2.20;;;;;;;-140.72;100.00;53202.59;6274631;22;20436;-65
2023/01/14 08:19:38;;;;;;;8.05;2.75;;;;;;;-140.72;100.00;53245.22;6273705;22;20001;-65
2023/01/14 08:22:03;;;;;;;6.53;2.90;;;;;;;-140.72;100.00;53192.44;6273300;22;20061;-64
2023/01/14 08:24:29;;;;;;;3.45;2.15;;;;;;;-140.72;100.00;53228.97;6271516;22;20014;-65
2023/01/14 08:26:54;;;;;;;7.00;2.50;;;;;;;-140.72;100.00;53200.56;6270517;22;20000;-67
2023/01/14 08:29:20;;;;;;;5.68;2.17;;;;;;;-140.72;100.00;53180.25;6271177;22;20078;-68
2023/01/14 08:31:51;;;;;;;7.10;2.33;;;;;;;-140.72;100.00;53226.94;6271927;22;20008;-67
2023/01/14 08:34:17;;;;;;;8.02;2.78;;;;;;;-140.72;100.00;53224.91;6272008;22;20008;-66
2023/01/14 08:36:42;;;;;;;4.45;2.53;;;;;;;-140.72;100.00;53206.66;6271784;22;20007;-65
2023/01/14 08:39:08;;;;;;;6.70;2.03;;;;;;;-140.72;100.00;53159.97;6273523;22;20031;-68
2023/01/14 08:41:37;;;;;;;3.28;1.92;;;;;;;-140.72;100.00;53178.22;6272852;22;20469;-67
2023/01/14 08:44:05;;;;;;;6.03;2.58;;;;;;;-140.72;100.00;53157.94;6271735;22;20437;-67
2023/01/14 08:46:30;;;;;;;5.63;2.35;;;;;;;-140.72;100.00;53190.41;6273845;22;20000;-67
2023/01/14 08:48:56;;;;;;;3.97;2.53;;;;;;;-140.72;100.00;53190.41;6273112;22;19999;-70
2023/01/14 08:51:26;;;;;;;4.95;3.08;;;;;;;-140.72;100.00;53172.16;6273629;22;20000;-67
2023/01/14 08:53:54;;;;;;;9.20;3.00;;;;;;;-140.72;100.00;53186.34;6273424;22;20073;-67
2023/01/14 08:56:19;;;;;;;5.45;2.70;;;;;;;-140.72;100.00;53194.47;6271546;22;20074;-67
2023/01/14 08:58:45;;;;;;;6.63;2.03;;;;;;;-140.72;100.00;53214.78;6273180;22;20023;-67
2023/01/14 09:01:12;;;;;;;5.30;2.53;;;;;;;-140.72;100.00;53184.31;6272735;22;20348;-69
2023/01/14 09:03:39;;;;;;;10.07;2.47;;;;;;;-140.72;100.00;53190.41;6272761;22;20000;-67
2023/01/14 09:06:08;;;;;;;4.13;1.58;;;;;;;-140.72;100.00;53186.34;6274364;22;20000;-69
2023/01/14 09:17:17;;;;;;;4.95;2.20;;;;;;;-140.72;100.00;53180.25;6272804;22;20038;-66
2023/01/14 09:19:47;;;;;;;7.80;2.10;;;;;;;-140.72;100.00;53174.19;6272616;22;20000;-68
2023/01/14 09:22:16;;;;;;;2.45;1.23;;;;;;;-140.72;100.00;53214.78;6272818;22;20026;-66
2023/01/14 09:24:41;;;;;;;2.30;1.30;;;;;;;-140.72;100.00;53172.16;6273376;22;20337;-66
2023/01/14 09:27:07;;;;;;;3.75;1.70;;;;;;;-140.72;100.00;53153.88;6273779;22;20000;-68
2023/01/14 09:29:32;;;;;;;2.95;1.42;;;;;;;-140.72;100.00;53182.28;6272500;22;20395;-68
2023/01/14 09:31:58;;;;;;;6.90;2.20;;;;;;;-140.72;100.00;53198.53;6272656;22;20007;-67
2023/01/14 09:34:23;;;;;;;2.58;1.55;;;;;;;-140.72;100.00;53170.13;6273364;22;20000;-68
2023/01/14 09:36:49;;;;;;;5.05;2.03;;;;;;;-140.72;100.00;53170.13;6273139;22;19999;-67
2023/01/14 09:39:15;;;;;;;4.28;1.58;;;;;;;-140.72;100.00;53155.91;6272436;22;20355;-69
2023/01/14 09:41:57;;;;;;;10.50;3.10;;;;;;;-140.72;100.00;53174.19;6273124;22;20082;-67
2023/01/14 09:44:24;;;;;;;2.50;1.30;;;;;;;-140.72;100.00;53147.78;6272918;22;20000;-67
2023/01/14 09:46:51;;;;;;;3.58;1.63;;;;;;;-140.72;100.00;53210.72;6273353;22;20023;-68
2023/01/14 09:49:21;;;;;;;1.95;0.90;;;;;;;-140.72;100.00;53155.91;6272886;22;20337;-67
2023/01/14 09:51:58;;;;;;;2.83;1.15;;;;;;;-140.72;100.00;53170.13;6271768;22;20087;-66
2023/01/14 09:54:42;;;;;;;1.90;1.30;;;;;;;-140.72;100.00;53153.88;6271690;22;20003;-67
2023/01/14 09:57:20;;;;;;;2.15;1.58;;;;;;;-140.72;100.00;53200.56;6273077;22;20004;-66
2023/01/14 10:00:24;;;;;;;2.20;1.27;;;;;;;-140.72;100.00;53153.88;6271791;22;20000;-67
2023/01/14 10:03:37;;;;;;;3.53;1.30;;;;;;;-140.72;100.00;53141.69;6213626;22;20326;-67
2023/01/14 10:06:17;;;;;;;1.25;0.93;;;;;;;-140.72;100.00;53162.00;6118165;23;20013;-67
2023/01/14 10:08:51;;;;;;;8.82;1.98;;;;;;;-140.72;100.00;53166.06;6255867;22;20054;-66
2023/01/14 10:11:17;;;;;;;3.58;0.82;;;;;;;-140.72;100.00;53178.22;6273047;22;20000;-67
2023/01/14 10:13:59;;;;;;;6.07;0.85;;;;;;;-140.72;100.00;53147.78;6272076;22;20003;-66
2023/01/14 10:16:33;;;;;;;3.10;1.80;;;;;;;-140.72;100.00;53194.47;6272286;22;20004;-67
2023/01/14 10:19:10;;;;;;;3.13;1.50;;;;;;;-140.72;100.00;53202.59;6272253;22;20003;-69
2023/01/14 10:21:46;;;;;;;7.00;1.67;;;;;;;-140.72;100.00;53151.84;6271284;22;20003;-68
2023/01/14 10:24:17;;;;;;;0.95;0.70;;;;;;;-140.72;100.00;53125.47;6273168;22;20000;-68
2023/01/14 10:26:44;;;;;;;3.55;1.38;;;;;;;-140.72;100.00;53164.03;6272314;22;20000;-68
2023/01/14 10:29:16;;;;;;;2.15;1.23;;;;;;;-140.72;100.00;53159.97;6273249;22;20322;-67
2023/01/14 10:31:49;;;;;;;3.20;1.05;;;;;;;-140.72;100.00;53157.94;6271835;22;20011;-66
2023/01/14 10:34:25;;;;;;;2.45;1.38;;;;;;;-140.72;100.00;53133.59;6272593;22;20000;-66
2023/01/14 10:36:50;;;;;;;0.70;0.43;;;;;;;-140.72;100.00;53170.13;6273015;22;20256;-67
2023/01/14 10:39:16;;;;;;;1.20;0.85;;;;;;;-140.72;100.00;53174.19;6272935;22;20004;-69
2023/01/14 10:41:50;;;;;;;1.65;0.98;;;;;;;-140.72;100.00;53174.19;6272370;22;20297;-67
2023/01/14 10:44:32;;;;;;;1.10;0.50;;;;;;;-140.72;100.00;53174.19;6273050;22;20070;-66
2023/01/14 10:47:03;;;;;;;2.15;0.77;;;;;;;-140.72;100.00;53174.19;6274175;22;19995;-67
2023/01/14 10:49:37;;;;;;;1.42;0.73;;;;;;;-140.72;100.00;53190.41;6271246;22;20467;-69
2023/01/14 10:52:26;;;;;;;2.40;0.80;;;;;;;-140.72;100.00;53145.75;6273690;22;20012;-68
2023/01/14 10:55:23;;;;;;;1.25;0.63;;;;;;;-140.72;100.00;53131.56;6254322;22;20015;-68
2023/01/14 10:58:06;;;;;;;3.80;1.00;;;;;;;-140.72;100.00;53170.13;6272629;22;20326;-67
2023/01/14 11:00:39;;;;;;;0.93;0.57;;;;;;;-140.72;100.00;53153.88;6273186;22;19996;-68
2023/01/14 11:03:08;;;;;;;1.63;0.68;;;;;;;-140.72;100.00;53149.81;6272598;22;20034;-68
2023/01/14 11:05:37;;;;;;;1.13;0.73;;;;;;;-140.72;100.00;53155.91;6272536;22;20000;-67
2023/01/14 11:08:22;;;;;;;1.17;0.93;;;;;;;-140.72;100.00;53093.00;6272912;22;20088;-67
2023/01/14 11:10:57;;;;;;;2.45;1.02;;;;;;;-140.72;100.00;53162.00;6272601;22;20004;-67
2023/01/14 11:13:29;;;;;;;1.40;0.70;;;;;;;-140.72;100.00;53162.00;6273156;22;20074;-67
2023/01/14 11:15:54;;;;;;;1.20;0.77;;;;;;;-140.72;100.00;53133.59;6272275;22;19995;-68
2023/01/14 11:18:38;;;;;;;5.88;1.35;;;;;;;-140.72;100.00;53157.94;6272791;22;20010;-67
2023/01/14 11:21:15;;;;;;;2.00;0.63;;;;;;;-140.72;100.00;53133.59;6272335;22;19999;-68
2023/01/14 11:23:55;;;;;;;3.30;0.90;;;;;;;-140.72;100.00;53131.56;6271353;22;20022;-67
2023/01/14 11:26:37;;;;;;;1.10;0.57;;;;;;;-140.72;100.00;53129.53;6272730;22;20318;-69
2023/01/14 11:29:22;;;;;;;0.93;0.70;;;;;;;-140.72;100.00;53166.06;6273300;22;20071;-67
2023/01/14 11:31:54;;;;;;;3.13;0.77;;;;;;;-140.72;100.00;53153.88;6271080;22;20125;-67
2023/01/14 11:34:33;;;;;;;3.45;0.68;;;;;;;-140.72;100.00;53131.56;6272483;22;20003;-67
2023/01/14 11:37:09;;;;;;;3.65;0.68;;;;;;;-140.72;100.00;53135.63;6271294;22;20061;-67
2023/01/14 11:39:37;;;;;;;0.85;0.52;;;;;;;-140.72;100.00;53170.13;6271876;22;20405;-66
2023/01/14 11:42:26;;;;;;;0.50;0.47;;;;;;;-140.72;100.00;53123.44;6273387;22;20042;-67
2023/01/14 11:44:57;;;;;;;1.70;0.77;;;;;;;-140.72;100.00;53184.31;6273958;22;20029;-67
2023/01/14 11:47:23;;;;;;;1.23;0.40;;;;;;;-140.72;100.00;53117.34;6274433;22;20022;-67
2023/01/14 11:50:15;;;;;;;0.73;0.28;;;;;;;-140.72;100.00;53147.78;6274078;22;20003;-67
2023/01/14 11:52:40;;;;;;;2.88;0.68;;;;;;;-140.72;100.00;53143.72;6273535;22;20080;-69
2023/01/14 11:55:16;;;;;;;1.35;1.10;;;;;;;-140.72;100.00;53168.09;6273702;22;20342;-67
2023/01/14 11:57:43;;;;;;;2.80;0.82;;;;;;;-140.72;100.00;53111.25;6272976;22;20025;-67
2023/01/14 12:00:11;;;;;;;1.75;0.70;;;;;;;-140.72;100.00;53157.94;6271243;22;20310;-68